Weather at Metropolitan Police Air Support Unit

Public forecast

Using degrees Celsius for public forecast. Weather courtesy of forecast.io.

Closest aviation weather report (METAR) to Metropolitan Police Air Support Unit

Closest report is London City Airport, 9.0 nm (16.7 km) S. Retrieved 2021/06/12 10:20 UTC (27 minutes ago):

EGLC 121020Z AUTO 33005KT 280V040 9999 BKN037 20/10 Q1023

Closest aviation forecast (TAF) to Metropolitan Police Air Support Unit

Forecast is more than 12 hours old.

Closest forecast is London City Airport, 9.0 nm (16.7 km) S. Retrieved 2018/10/15 21:30 UTC (3 years ago):

TAF EGLC 152119Z 1521/1621 CNL